sensor_id;sensor_type;location;lat;lon;timestamp;P1;durP1;ratioP1;P2;durP2;ratioP2
29452;SDS011;16424;50.956;5.320;2023-04-03T00:00:11;12.70;;;7.03;;
29452;SDS011;16424;50.956;5.320;2023-04-03T00:02:38;8.95;;;6.75;;
29452;SDS011;16424;50.956;5.320;2023-04-03T00:05:05;10.70;;;7.50;;
29452;SDS011;16424;50.956;5.320;2023-04-03T00:07:31;12.20;;;6.72;;
29452;SDS011;16424;50.956;5.320;2023-04-03T00:09:57;12.57;;;7.65;;
29452;SDS011;16424;50.956;5.320;2023-04-03T00:12:22;11.90;;;7.10;;
29452;SDS011;16424;50.956;5.320;2023-04-03T00:14:48;11.50;;;6.85;;
29452;SDS011;16424;50.956;5.320;2023-04-03T00:17:14;11.15;;;6.75;;
29452;SDS011;16424;50.956;5.320;2023-04-03T00:19:39;10.55;;;7.57;;
29452;SDS011;16424;50.956;5.320;2023-04-03T00:22:05;12.73;;;7.90;;
29452;SDS011;16424;50.956;5.320;2023-04-03T00:24:31;13.10;;;8.75;;
29452;SDS011;16424;50.956;5.320;2023-04-03T00:26:56;8.65;;;7.10;;
29452;SDS011;16424;50.956;5.320;2023-04-03T00:29:22;11.00;;;6.78;;
29452;SDS011;16424;50.956;5.320;2023-04-03T00:31:47;9.63;;;6.47;;
29452;SDS011;16424;50.956;5.320;2023-04-03T00:34:13;13.05;;;6.78;;
29452;SDS011;16424;50.956;5.320;2023-04-03T00:36:39;12.88;;;6.75;;
29452;SDS011;16424;50.956;5.320;2023-04-03T00:39:04;10.93;;;7.25;;
29452;SDS011;16424;50.956;5.320;2023-04-03T00:41:31;13.00;;;7.45;;
29452;SDS011;16424;50.956;5.320;2023-04-03T00:43:57;13.88;;;7.13;;
29452;SDS011;16424;50.956;5.320;2023-04-03T00:46:22;11.93;;;7.35;;
29452;SDS011;16424;50.956;5.320;2023-04-03T00:48:48;14.13;;;7.70;;
29452;SDS011;16424;50.956;5.320;2023-04-03T00:51:16;9.77;;;7.10;;
29452;SDS011;16424;50.956;5.320;2023-04-03T00:53:47;11.30;;;6.93;;
29452;SDS011;16424;50.956;5.320;2023-04-03T00:56:22;12.13;;;6.63;;
29452;SDS011;16424;50.956;5.320;2023-04-03T01:01:23;9.30;;;7.00;;
29452;SDS011;16424;50.956;5.320;2023-04-03T01:03:51;13.48;;;8.10;;
29452;SDS011;16424;50.956;5.320;2023-04-03T01:06:17;8.93;;;7.15;;
29452;SDS011;16424;50.956;5.320;2023-04-03T01:08:48;12.25;;;7.63;;
29452;SDS011;16424;50.956;5.320;2023-04-03T01:11:15;14.38;;;7.03;;
29452;SDS011;16424;50.956;5.320;2023-04-03T01:13:41;14.25;;;7.50;;
29452;SDS011;16424;50.956;5.320;2023-04-03T01:16:07;14.73;;;7.28;;
29452;SDS011;16424;50.956;5.320;2023-04-03T01:18:34;14.85;;;7.07;;
29452;SDS011;16424;50.956;5.320;2023-04-03T01:24:00;13.40;;;8.35;;
29452;SDS011;16424;50.956;5.320;2023-04-03T01:26:30;13.82;;;7.65;;
29452;SDS011;16424;50.956;5.320;2023-04-03T01:28:58;8.82;;;6.88;;
29452;SDS011;16424;50.956;5.320;2023-04-03T01:31:26;13.70;;;7.82;;
29452;SDS011;16424;50.956;5.320;2023-04-03T01:34:10;9.98;;;7.50;;
29452;SDS011;16424;50.956;5.320;2023-04-03T01:36:36;12.98;;;7.40;;
29452;SDS011;16424;50.956;5.320;2023-04-03T01:39:02;10.32;;;7.88;;
29452;SDS011;16424;50.956;5.320;2023-04-03T01:41:28;11.63;;;7.50;;
29452;SDS011;16424;50.956;5.320;2023-04-03T01:43:54;9.25;;;7.32;;
29452;SDS011;16424;50.956;5.320;2023-04-03T01:46:19;12.63;;;7.82;;
29452;SDS011;16424;50.956;5.320;2023-04-03T01:48:46;10.38;;;7.55;;
29452;SDS011;16424;50.956;5.320;2023-04-03T01:51:12;14.45;;;8.65;;
29452;SDS011;16424;50.956;5.320;2023-04-03T01:53:38;12.73;;;7.88;;
29452;SDS011;16424;50.956;5.320;2023-04-03T01:56:04;14.82;;;8.48;;
29452;SDS011;16424;50.956;5.320;2023-04-03T01:58:30;11.95;;;8.95;;
29452;SDS011;16424;50.956;5.320;2023-04-03T02:00:55;17.98;;;7.90;;
29452;SDS011;16424;50.956;5.320;2023-04-03T02:03:21;12.30;;;7.95;;
29452;SDS011;16424;50.956;5.320;2023-04-03T02:05:47;11.63;;;8.40;;
29452;SDS011;16424;50.956;5.320;2023-04-03T02:08:13;13.70;;;8.10;;
29452;SDS011;16424;50.956;5.320;2023-04-03T02:10:39;16.67;;;8.15;;
29452;SDS011;16424;50.956;5.320;2023-04-03T02:13:05;16.08;;;8.65;;
29452;SDS011;16424;50.956;5.320;2023-04-03T02:15:30;12.07;;;8.98;;
29452;SDS011;16424;50.956;5.320;2023-04-03T02:17:56;15.40;;;9.02;;
29452;SDS011;16424;50.956;5.320;2023-04-03T02:20:22;14.60;;;8.13;;
29452;SDS011;16424;50.956;5.320;2023-04-03T02:22:47;11.85;;;8.68;;
29452;SDS011;16424;50.956;5.320;2023-04-03T02:25:13;17.63;;;9.15;;
29452;SDS011;16424;50.956;5.320;2023-04-03T02:27:39;17.73;;;8.95;;
29452;SDS011;16424;50.956;5.320;2023-04-03T02:30:05;13.32;;;9.30;;
29452;SDS011;16424;50.956;5.320;2023-04-03T02:32:31;12.63;;;9.35;;
29452;SDS011;16424;50.956;5.320;2023-04-03T02:34:57;16.85;;;9.82;;
29452;SDS011;16424;50.956;5.320;2023-04-03T02:37:23;14.40;;;8.70;;
29452;SDS011;16424;50.956;5.320;2023-04-03T02:39:49;12.02;;;8.57;;
29452;SDS011;16424;50.956;5.320;2023-04-03T02:42:15;14.82;;;8.63;;
29452;SDS011;16424;50.956;5.320;2023-04-03T02:44:41;14.40;;;9.18;;
29452;SDS011;16424;50.956;5.320;2023-04-03T02:47:06;11.98;;;8.20;;
29452;SDS011;16424;50.956;5.320;2023-04-03T02:49:32;13.52;;;9.10;;
29452;SDS011;16424;50.956;5.320;2023-04-03T02:51:58;13.75;;;9.18;;
29452;SDS011;16424;50.956;5.320;2023-04-03T02:54:23;12.02;;;8.95;;
29452;SDS011;16424;50.956;5.320;2023-04-03T02:56:52;15.57;;;9.68;;
29452;SDS011;16424;50.956;5.320;2023-04-03T02:59:18;15.65;;;9.30;;
29452;SDS011;16424;50.956;5.320;2023-04-03T03:01:44;17.05;;;9.30;;
29452;SDS011;16424;50.956;5.320;2023-04-03T03:04:10;17.38;;;9.10;;
29452;SDS011;16424;50.956;5.320;2023-04-03T03:06:36;19.92;;;9.75;;
29452;SDS011;16424;50.956;5.320;2023-04-03T03:09:02;16.15;;;9.50;;
29452;SDS011;16424;50.956;5.320;2023-04-03T03:11:28;16.60;;;9.93;;
29452;SDS011;16424;50.956;5.320;2023-04-03T03:13:54;18.45;;;10.48;;
29452;SDS011;16424;50.956;5.320;2023-04-03T03:16:20;16.58;;;10.95;;
29452;SDS011;16424;50.956;5.320;2023-04-03T03:18:46;17.90;;;11.00;;
29452;SDS011;16424;50.956;5.320;2023-04-03T03:21:12;18.10;;;10.15;;
29452;SDS011;16424;50.956;5.320;2023-04-03T03:23:37;14.25;;;10.85;;
29452;SDS011;16424;50.956;5.320;2023-04-03T03:26:04;16.73;;;10.32;;
29452;SDS011;16424;50.956;5.320;2023-04-03T03:28:31;18.67;;;11.15;;
29452;SDS011;16424;50.956;5.320;2023-04-03T03:30:57;18.98;;;11.70;;
29452;SDS011;16424;50.956;5.320;2023-04-03T03:33:24;19.38;;;11.95;;
29452;SDS011;16424;50.956;5.320;2023-04-03T03:35:50;17.67;;;11.98;;
29452;SDS011;16424;50.956;5.320;2023-04-03T03:38:16;18.63;;;11.63;;
29452;SDS011;16424;50.956;5.320;2023-04-03T03:40:41;17.15;;;11.30;;
29452;SDS011;16424;50.956;5.320;2023-04-03T03:43:07;16.00;;;11.80;;
29452;SDS011;16424;50.956;5.320;2023-04-03T03:45:33;19.83;;;12.52;;
29452;SDS011;16424;50.956;5.320;2023-04-03T03:47:58;17.55;;;11.20;;
29452;SDS011;16424;50.956;5.320;2023-04-03T03:50:24;17.83;;;11.45;;
29452;SDS011;16424;50.956;5.320;2023-04-03T03:52:50;18.90;;;11.75;;
29452;SDS011;16424;50.956;5.320;2023-04-03T03:55:15;17.08;;;11.07;;
29452;SDS011;16424;50.956;5.320;2023-04-03T03:57:41;17.85;;;12.57;;
29452;SDS011;16424;50.956;5.320;2023-04-03T04:00:07;22.17;;;11.77;;
29452;SDS011;16424;50.956;5.320;2023-04-03T04:02:33;18.95;;;12.40;;
29452;SDS011;16424;50.956;5.320;2023-04-03T04:04:59;15.55;;;10.90;;
29452;SDS011;16424;50.956;5.320;2023-04-03T04:07:25;18.70;;;13.00;;
29452;SDS011;16424;50.956;5.320;2023-04-03T04:09:53;19.65;;;11.85;;
29452;SDS011;16424;50.956;5.320;2023-04-03T04:12:19;17.38;;;12.07;;
29452;SDS011;16424;50.956;5.320;2023-04-03T04:14:45;20.33;;;12.73;;
29452;SDS011;16424;50.956;5.320;2023-04-03T04:17:11;19.23;;;11.70;;
29452;SDS011;16424;50.956;5.320;2023-04-03T04:19:40;22.27;;;12.85;;
29452;SDS011;16424;50.956;5.320;2023-04-03T04:22:06;21.65;;;12.07;;
29452;SDS011;16424;50.956;5.320;2023-04-03T04:24:31;20.08;;;12.07;;
29452;SDS011;16424;50.956;5.320;2023-04-03T04:26:57;19.85;;;12.60;;
29452;SDS011;16424;50.956;5.320;2023-04-03T04:29:23;25.15;;;12.65;;
29452;SDS011;16424;50.956;5.320;2023-04-03T04:31:49;19.70;;;13.02;;
29452;SDS011;16424;50.956;5.320;2023-04-03T04:34:15;18.83;;;13.10;;
29452;SDS011;16424;50.956;5.320;2023-04-03T04:36:40;21.23;;;13.60;;
29452;SDS011;16424;50.956;5.320;2023-04-03T04:39:06;20.05;;;13.77;;
29452;SDS011;16424;50.956;5.320;2023-04-03T04:41:32;20.30;;;13.40;;
29452;SDS011;16424;50.956;5.320;2023-04-03T04:43:58;19.48;;;12.98;;
29452;SDS011;16424;50.956;5.320;2023-04-03T04:46:24;17.95;;;13.13;;
29452;SDS011;16424;50.956;5.320;2023-04-03T04:48:50;22.73;;;13.10;;
29452;SDS011;16424;50.956;5.320;2023-04-03T04:51:15;23.33;;;15.02;;
29452;SDS011;16424;50.956;5.320;2023-04-03T04:53:41;22.40;;;14.73;;
29452;SDS011;16424;50.956;5.320;2023-04-03T04:56:07;23.73;;;15.27;;
29452;SDS011;16424;50.956;5.320;2023-04-03T04:58:33;78.05;;;21.83;;
29452;SDS011;16424;50.956;5.320;2023-04-03T05:01:03;27.48;;;17.30;;
29452;SDS011;16424;50.956;5.320;2023-04-03T05:03:30;26.27;;;15.88;;
29452;SDS011;16424;50.956;5.320;2023-04-03T05:05:56;25.45;;;16.77;;
29452;SDS011;16424;50.956;5.320;2023-04-03T05:08:22;27.20;;;17.90;;
29452;SDS011;16424;50.956;5.320;2023-04-03T05:10:48;22.60;;;17.50;;
29452;SDS011;16424;50.956;5.320;2023-04-03T05:13:14;24.70;;;17.42;;
29452;SDS011;16424;50.956;5.320;2023-04-03T05:15:40;24.73;;;17.23;;
29452;SDS011;16424;50.956;5.320;2023-04-03T05:18:05;23.80;;;17.08;;
29452;SDS011;16424;50.956;5.320;2023-04-03T05:20:32;25.23;;;17.55;;
29452;SDS011;16424;50.956;5.320;2023-04-03T05:22:58;25.27;;;16.80;;
29452;SDS011;16424;50.956;5.320;2023-04-03T05:25:24;22.70;;;17.02;;
29452;SDS011;16424;50.956;5.320;2023-04-03T05:27:50;26.02;;;17.30;;
29452;SDS011;16424;50.956;5.320;2023-04-03T05:30:16;24.17;;;16.55;;
29452;SDS011;16424;50.956;5.320;2023-04-03T05:32:42;27.88;;;18.40;;
29452;SDS011;16424;50.956;5.320;2023-04-03T05:35:08;24.00;;;18.02;;
29452;SDS011;16424;50.956;5.320;2023-04-03T05:37:34;29.27;;;18.13;;
29452;SDS011;16424;50.956;5.320;2023-04-03T05:40:00;34.13;;;17.70;;
29452;SDS011;16424;50.956;5.320;2023-04-03T05:42:27;28.85;;;18.35;;
29452;SDS011;16424;50.956;5.320;2023-04-03T05:44:53;28.13;;;17.27;;
29452;SDS011;16424;50.956;5.320;2023-04-03T05:47:18;25.20;;;17.05;;
29452;SDS011;16424;50.956;5.320;2023-04-03T05:49:45;24.05;;;18.05;;
29452;SDS011;16424;50.956;5.320;2023-04-03T05:52:19;29.02;;;17.08;;
29452;SDS011;16424;50.956;5.320;2023-04-03T05:54:47;22.40;;;15.40;;
29452;SDS011;16424;50.956;5.320;2023-04-03T05:57:17;22.27;;;15.07;;
29452;SDS011;16424;50.956;5.320;2023-04-03T05:59:43;25.40;;;15.27;;
29452;SDS011;16424;50.956;5.320;2023-04-03T06:02:14;22.30;;;15.77;;
29452;SDS011;16424;50.956;5.320;2023-04-03T06:04:42;20.73;;;15.00;;
29452;SDS011;16424;50.956;5.320;2023-04-03T06:07:10;22.95;;;13.43;;
29452;SDS011;16424;50.956;5.320;2023-04-03T06:09:39;19.50;;;12.20;;
29452;SDS011;16424;50.956;5.320;2023-04-03T06:12:05;15.52;;;9.90;;
29452;SDS011;16424;50.956;5.320;2023-04-03T06:14:30;15.20;;;7.65;;
29452;SDS011;16424;50.956;5.320;2023-04-03T06:16:56;10.70;;;7.22;;
29452;SDS011;16424;50.956;5.320;2023-04-03T06:19:22;11.57;;;7.72;;
29452;SDS011;16424;50.956;5.320;2023-04-03T06:21:48;9.27;;;5.60;;
29452;SDS011;16424;50.956;5.320;2023-04-03T06:24:15;11.70;;;6.05;;
29452;SDS011;16424;50.956;5.320;2023-04-03T06:26:41;14.80;;;6.05;;
29452;SDS011;16424;50.956;5.320;2023-04-03T06:29:08;10.98;;;5.65;;
29452;SDS011;16424;50.956;5.320;2023-04-03T06:31:33;16.58;;;5.43;;
29452;SDS011;16424;50.956;5.320;2023-04-03T06:34:01;10.00;;;4.88;;
29452;SDS011;16424;50.956;5.320;2023-04-03T06:36:27;8.90;;;5.18;;
29452;SDS011;16424;50.956;5.320;2023-04-03T06:38:53;10.98;;;5.25;;
29452;SDS011;16424;50.956;5.320;2023-04-03T06:41:19;9.57;;;4.82;;
29452;SDS011;16424;50.956;5.320;2023-04-03T06:43:46;9.00;;;4.35;;
29452;SDS011;16424;50.956;5.320;2023-04-03T06:46:21;7.78;;;4.70;;
29452;SDS011;16424;50.956;5.320;2023-04-03T06:48:47;10.77;;;5.82;;
29452;SDS011;16424;50.956;5.320;2023-04-03T06:51:27;10.98;;;5.05;;
29452;SDS011;16424;50.956;5.320;2023-04-03T06:53:54;8.48;;;4.63;;
29452;SDS011;16424;50.956;5.320;2023-04-03T06:56:21;8.50;;;4.32;;
29452;SDS011;16424;50.956;5.320;2023-04-03T06:58:47;10.77;;;4.35;;
29452;SDS011;16424;50.956;5.320;2023-04-03T07:01:15;10.90;;;4.43;;
29452;SDS011;16424;50.956;5.320;2023-04-03T07:03:42;8.70;;;4.20;;
29452;SDS011;16424;50.956;5.320;2023-04-03T07:06:09;7.95;;;4.20;;
29452;SDS011;16424;50.956;5.320;2023-04-03T07:08:36;8.70;;;3.42;;
29452;SDS011;16424;50.956;5.320;2023-04-03T07:11:03;9.70;;;3.95;;
29452;SDS011;16424;50.956;5.320;2023-04-03T07:13:29;8.27;;;3.88;;
29452;SDS011;16424;50.956;5.320;2023-04-03T07:15:55;6.90;;;3.67;;
29452;SDS011;16424;50.956;5.320;2023-04-03T07:18:21;8.90;;;3.42;;
29452;SDS011;16424;50.956;5.320;2023-04-03T07:20:47;7.38;;;3.75;;
29452;SDS011;16424;50.956;5.320;2023-04-03T07:23:13;8.63;;;3.72;;
29452;SDS011;16424;50.956;5.320;2023-04-03T07:25:45;8.52;;;3.50;;
29452;SDS011;16424;50.956;5.320;2023-04-03T07:28:12;8.65;;;3.60;;
29452;SDS011;16424;50.956;5.320;2023-04-03T07:30:42;6.05;;;3.00;;
29452;SDS011;16424;50.956;5.320;2023-04-03T07:33:10;7.03;;;3.90;;
29452;SDS011;16424;50.956;5.320;2023-04-03T07:35:36;5.03;;;3.05;;
29452;SDS011;16424;50.956;5.320;2023-04-03T07:38:02;6.13;;;3.15;;
29452;SDS011;16424;50.956;5.320;2023-04-03T07:40:28;7.15;;;3.22;;
29452;SDS011;16424;50.956;5.320;2023-04-03T07:42:53;6.95;;;3.35;;
29452;SDS011;16424;50.956;5.320;2023-04-03T07:45:21;6.03;;;3.22;;
29452;SDS011;16424;50.956;5.320;2023-04-03T07:47:47;6.80;;;3.10;;
29452;SDS011;16424;50.956;5.320;2023-04-03T07:50:13;5.10;;;3.10;;
29452;SDS011;16424;50.956;5.320;2023-04-03T07:52:39;9.35;;;3.50;;
29452;SDS011;16424;50.956;5.320;2023-04-03T07:55:06;7.43;;;2.92;;
29452;SDS011;16424;50.956;5.320;2023-04-03T07:57:32;7.80;;;2.92;;
29452;SDS011;16424;50.956;5.320;2023-04-03T07:59:57;6.88;;;3.47;;
29452;SDS011;16424;50.956;5.320;2023-04-03T08:02:23;25.73;;;5.78;;
29452;SDS011;16424;50.956;5.320;2023-04-03T08:04:48;7.80;;;3.25;;
29452;SDS011;16424;50.956;5.320;2023-04-03T08:07:14;6.07;;;2.75;;
29452;SDS011;16424;50.956;5.320;2023-04-03T08:09:40;5.68;;;3.00;;
29452;SDS011;16424;50.956;5.320;2023-04-03T08:12:06;9.38;;;2.60;;
29452;SDS011;16424;50.956;5.320;2023-04-03T08:14:32;8.05;;;2.67;;
29452;SDS011;16424;50.956;5.320;2023-04-03T08:16:59;7.20;;;2.80;;
29452;SDS011;16424;50.956;5.320;2023-04-03T08:19:25;5.82;;;2.40;;
29452;SDS011;16424;50.956;5.320;2023-04-03T08:21:51;6.03;;;2.10;;
29452;SDS011;16424;50.956;5.320;2023-04-03T08:24:18;5.78;;;2.83;;
29452;SDS011;16424;50.956;5.320;2023-04-03T08:26:44;7.20;;;3.25;;
29452;SDS011;16424;50.956;5.320;2023-04-03T08:29:10;6.85;;;3.00;;
29452;SDS011;16424;50.956;5.320;2023-04-03T08:31:35;8.15;;;2.50;;
29452;SDS011;16424;50.956;5.320;2023-04-03T08:34:01;5.10;;;2.28;;
29452;SDS011;16424;50.956;5.320;2023-04-03T08:36:27;5.78;;;2.42;;
29452;SDS011;16424;50.956;5.320;2023-04-03T08:38:55;6.53;;;2.40;;
29452;SDS011;16424;50.956;5.320;2023-04-03T08:44:09;5.72;;;2.47;;
29452;SDS011;16424;50.956;5.320;2023-04-03T08:47:23;5.40;;;2.35;;
29452;SDS011;16424;50.956;5.320;2023-04-03T08:49:55;10.57;;;3.17;;
29452;SDS011;16424;50.956;5.320;2023-04-03T08:52:45;5.78;;;2.25;;
29452;SDS011;16424;50.956;5.320;2023-04-03T08:58:15;4.90;;;2.00;;
29452;SDS011;16424;50.956;5.320;2023-04-03T09:00:48;6.47;;;2.50;;
29452;SDS011;16424;50.956;5.320;2023-04-03T09:03:18;3.30;;;1.90;;
29452;SDS011;16424;50.956;5.320;2023-04-03T09:05:47;4.75;;;2.28;;
29452;SDS011;16424;50.956;5.320;2023-04-03T09:08:21;6.75;;;1.73;;
29452;SDS011;16424;50.956;5.320;2023-04-03T09:10:58;4.32;;;1.90;;
29452;SDS011;16424;50.956;5.320;2023-04-03T09:13:41;5.78;;;2.20;;
29452;SDS011;16424;50.956;5.320;2023-04-03T09:18:50;8.13;;;2.08;;
29452;SDS011;16424;50.956;5.320;2023-04-03T09:21:27;8.40;;;2.28;;
29452;SDS011;16424;50.956;5.320;2023-04-03T09:24:01;9.48;;;1.95;;
29452;SDS011;16424;50.956;5.320;2023-04-03T09:26:36;7.65;;;1.92;;
29452;SDS011;16424;50.956;5.320;2023-04-03T09:29:20;4.93;;;2.05;;
29452;SDS011;16424;50.956;5.320;2023-04-03T09:31:49;11.18;;;2.10;;
29452;SDS011;16424;50.956;5.320;2023-04-03T09:34:22;4.30;;;1.70;;
29452;SDS011;16424;50.956;5.320;2023-04-03T09:36:52;4.65;;;1.70;;
29452;SDS011;16424;50.956;5.320;2023-04-03T09:39:21;5.95;;;2.33;;
29452;SDS011;16424;50.956;5.320;2023-04-03T09:42:04;8.35;;;1.92;;
29452;SDS011;16424;50.956;5.320;2023-04-03T09:45:03;4.25;;;2.05;;
29452;SDS011;16424;50.956;5.320;2023-04-03T09:47:31;5.65;;;2.25;;
29452;SDS011;16424;50.956;5.320;2023-04-03T09:52:45;4.43;;;1.73;;
29452;SDS011;16424;50.956;5.320;2023-04-03T09:55:16;8.25;;;2.10;;
29452;SDS011;16424;50.956;5.320;2023-04-03T09:57:42;5.70;;;2.20;;
29452;SDS011;16424;50.956;5.320;2023-04-03T10:00:22;5.97;;;2.00;;
29452;SDS011;16424;50.956;5.320;2023-04-03T10:02:54;5.82;;;2.40;;
29452;SDS011;16424;50.956;5.320;2023-04-03T10:05:40;3.88;;;1.85;;
29452;SDS011;16424;50.956;5.320;2023-04-03T10:08:07;7.30;;;2.25;;
29452;SDS011;16424;50.956;5.320;2023-04-03T10:10:44;4.07;;;1.58;;
29452;SDS011;16424;50.956;5.320;2023-04-03T10:13:29;4.10;;;1.80;;
29452;SDS011;16424;50.956;5.320;2023-04-03T10:15:56;3.58;;;1.50;;
29452;SDS011;16424;50.956;5.320;2023-04-03T10:34:43;5.50;;;1.50;;
29452;SDS011;16424;50.956;5.320;2023-04-03T10:45:28;5.35;;;1.17;;
29452;SDS011;16424;50.956;5.320;2023-04-03T10:48:26;5.13;;;1.65;;
29452;SDS011;16424;50.956;5.320;2023-04-03T10:51:41;2.63;;;1.55;;
29452;SDS011;16424;50.956;5.320;2023-04-03T10:56:32;3.35;;;1.23;;
29452;SDS011;16424;50.956;5.320;2023-04-03T11:01:38;3.87;;;0.80;;
29452;SDS011;16424;50.956;5.320;2023-04-03T11:04:06;4.82;;;0.95;;
29452;SDS011;16424;50.956;5.320;2023-04-03T11:06:35;2.78;;;0.85;;
29452;SDS011;16424;50.956;5.320;2023-04-03T11:09:18;2.28;;;0.70;;
29452;SDS011;16424;50.956;5.320;2023-04-03T11:11:51;2.10;;;0.98;;
29452;SDS011;16424;50.956;5.320;2023-04-03T11:14:28;2.10;;;1.00;;
29452;SDS011;16424;50.956;5.320;2023-04-03T11:19:44;1.67;;;1.00;;
29452;SDS011;16424;50.956;5.320;2023-04-03T11:36:02;2.42;;;0.90;;
29452;SDS011;16424;50.956;5.320;2023-04-03T11:38:36;1.20;;;0.93;;
29452;SDS011;16424;50.956;5.320;2023-04-03T11:41:08;2.03;;;1.15;;
29452;SDS011;16424;50.956;5.320;2023-04-03T11:43:40;2.15;;;1.25;;
29452;SDS011;16424;50.956;5.320;2023-04-03T11:46:20;4.10;;;1.02;;
29452;SDS011;16424;50.956;5.320;2023-04-03T11:48:47;2.53;;;1.15;;
29452;SDS011;16424;50.956;5.320;2023-04-03T11:53:45;3.28;;;1.00;;
29452;SDS011;16424;50.956;5.320;2023-04-03T11:59:25;2.70;;;1.25;;
29452;SDS011;16424;50.956;5.320;2023-04-03T12:04:14;2.95;;;1.20;;
29452;SDS011;16424;50.956;5.320;2023-04-03T12:06:49;4.50;;;1.40;;
29452;SDS011;16424;50.956;5.320;2023-04-03T12:09:28;6.15;;;1.88;;
29452;SDS011;16424;50.956;5.320;2023-04-03T12:11:58;3.33;;;1.52;;
29452;SDS011;16424;50.956;5.320;2023-04-03T12:14:26;4.63;;;1.13;;
29452;SDS011;16424;50.956;5.320;2023-04-03T12:16:54;3.47;;;1.00;;
29452;SDS011;16424;50.956;5.320;2023-04-03T12:24:29;3.58;;;1.35;;
29452;SDS011;16424;50.956;5.320;2023-04-03T12:29:24;2.00;;;1.30;;
29452;SDS011;16424;50.956;5.320;2023-04-03T12:48:29;4.63;;;1.08;;
29452;SDS011;16424;50.956;5.320;2023-04-03T12:51:15;4.25;;;1.17;;
29452;SDS011;16424;50.956;5.320;2023-04-03T12:53:51;4.32;;;1.38;;
29452;SDS011;16424;50.956;5.320;2023-04-03T12:58:50;2.42;;;1.25;;
29452;SDS011;16424;50.956;5.320;2023-04-03T13:01:18;4.15;;;1.70;;
29452;SDS011;16424;50.956;5.320;2023-04-03T13:03:49;4.10;;;1.40;;
29452;SDS011;16424;50.956;5.320;2023-04-03T13:06:22;2.92;;;1.52;;
29452;SDS011;16424;50.956;5.320;2023-04-03T13:08:56;3.63;;;1.50;;
29452;SDS011;16424;50.956;5.320;2023-04-03T13:11:24;5.55;;;1.90;;
29452;SDS011;16424;50.956;5.320;2023-04-03T13:13:56;4.75;;;1.55;;
29452;SDS011;16424;50.956;5.320;2023-04-03T13:16:23;3.78;;;1.92;;
29452;SDS011;16424;50.956;5.320;2023-04-03T13:18:51;3.13;;;2.05;;
29452;SDS011;16424;50.956;5.320;2023-04-03T13:21:19;5.15;;;1.45;;
29452;SDS011;16424;50.956;5.320;2023-04-03T13:23:52;2.60;;;1.13;;
29452;SDS011;16424;50.956;5.320;2023-04-03T13:26:22;2.13;;;1.50;;
29452;SDS011;16424;50.956;5.320;2023-04-03T13:28:51;3.25;;;1.55;;
29452;SDS011;16424;50.956;5.320;2023-04-03T13:36:32;3.33;;;1.45;;
29452;SDS011;16424;50.956;5.320;2023-04-03T13:41:59;12.50;;;3.33;;
29452;SDS011;16424;50.956;5.320;2023-04-03T13:49:42;3.85;;;1.95;;
29452;SDS011;16424;50.956;5.320;2023-04-03T13:52:30;4.72;;;1.90;;
29452;SDS011;16424;50.956;5.320;2023-04-03T13:55:23;4.82;;;1.73;;
29452;SDS011;16424;50.956;5.320;2023-04-03T14:03:03;4.10;;;1.67;;
29452;SDS011;16424;50.956;5.320;2023-04-03T14:05:39;3.75;;;1.85;;
29452;SDS011;16424;50.956;5.320;2023-04-03T14:08:05;4.28;;;1.63;;
29452;SDS011;16424;50.956;5.320;2023-04-03T14:10:32;3.13;;;1.63;;
29452;SDS011;16424;50.956;5.320;2023-04-03T14:12:58;5.38;;;1.70;;
29452;SDS011;16424;50.956;5.320;2023-04-03T14:15:24;5.53;;;1.52;;
29452;SDS011;16424;50.956;5.320;2023-04-03T14:17:55;4.15;;;1.85;;
29452;SDS011;16424;50.956;5.320;2023-04-03T14:20:22;3.75;;;1.90;;
29452;SDS011;16424;50.956;5.320;2023-04-03T14:22:50;5.20;;;1.50;;
29452;SDS011;16424;50.956;5.320;2023-04-03T14:25:17;3.15;;;1.73;;
29452;SDS011;16424;50.956;5.320;2023-04-03T14:27:44;3.40;;;1.45;;
29452;SDS011;16424;50.956;5.320;2023-04-03T14:30:14;3.97;;;1.50;;
29452;SDS011;16424;50.956;5.320;2023-04-03T14:32:45;3.10;;;1.60;;
29452;SDS011;16424;50.956;5.320;2023-04-03T14:35:12;4.80;;;2.10;;
29452;SDS011;16424;50.956;5.320;2023-04-03T14:37:38;4.75;;;1.65;;
29452;SDS011;16424;50.956;5.320;2023-04-03T14:40:05;6.07;;;1.88;;
29452;SDS011;16424;50.956;5.320;2023-04-03T14:42:34;6.55;;;2.33;;
29452;SDS011;16424;50.956;5.320;2023-04-03T14:45:03;3.00;;;1.65;;
29452;SDS011;16424;50.956;5.320;2023-04-03T14:47:31;3.05;;;1.45;;
29452;SDS011;16424;50.956;5.320;2023-04-03T14:49:58;5.68;;;1.60;;
29452;SDS011;16424;50.956;5.320;2023-04-03T14:52:26;4.20;;;1.80;;
29452;SDS011;16424;50.956;5.320;2023-04-03T14:54:57;4.53;;;1.70;;
29452;SDS011;16424;50.956;5.320;2023-04-03T14:57:23;4.70;;;2.13;;
29452;SDS011;16424;50.956;5.320;2023-04-03T14:59:51;4.68;;;1.60;;
29452;SDS011;16424;50.956;5.320;2023-04-03T15:02:24;5.95;;;1.70;;
29452;SDS011;16424;50.956;5.320;2023-04-03T15:04:56;5.53;;;1.85;;
29452;SDS011;16424;50.956;5.320;2023-04-03T15:07:24;5.22;;;1.80;;
29452;SDS011;16424;50.956;5.320;2023-04-03T15:09:51;4.45;;;2.00;;
29452;SDS011;16424;50.956;5.320;2023-04-03T15:12:17;3.88;;;2.10;;
29452;SDS011;16424;50.956;5.320;2023-04-03T15:14:43;5.32;;;1.88;;
29452;SDS011;16424;50.956;5.320;2023-04-03T15:17:17;4.93;;;2.03;;
29452;SDS011;16424;50.956;5.320;2023-04-03T15:19:45;4.45;;;1.60;;
29452;SDS011;16424;50.956;5.320;2023-04-03T15:22:18;4.15;;;1.55;;
29452;SDS011;16424;50.956;5.320;2023-04-03T15:24:45;3.17;;;1.40;;
29452;SDS011;16424;50.956;5.320;2023-04-03T15:27:11;9.77;;;1.65;;
29452;SDS011;16424;50.956;5.320;2023-04-03T15:29:38;4.93;;;2.00;;
29452;SDS011;16424;50.956;5.320;2023-04-03T15:32:06;4.93;;;1.67;;
29452;SDS011;16424;50.956;5.320;2023-04-03T15:34:32;6.70;;;1.50;;
29452;SDS011;16424;50.956;5.320;2023-04-03T15:36:57;3.70;;;1.35;;
29452;SDS011;16424;50.956;5.320;2023-04-03T15:39:24;4.28;;;1.70;;
29452;SDS011;16424;50.956;5.320;2023-04-03T15:41:50;2.63;;;1.27;;
29452;SDS011;16424;50.956;5.320;2023-04-03T15:44:17;4.20;;;1.73;;
29452;SDS011;16424;50.956;5.320;2023-04-03T15:46:43;4.10;;;1.40;;
29452;SDS011;16424;50.956;5.320;2023-04-03T15:49:11;5.22;;;1.90;;
29452;SDS011;16424;50.956;5.320;2023-04-03T15:51:37;4.50;;;1.55;;
29452;SDS011;16424;50.956;5.320;2023-04-03T15:54:03;3.58;;;1.55;;
29452;SDS011;16424;50.956;5.320;2023-04-03T15:56:29;3.45;;;1.63;;
29452;SDS011;16424;50.956;5.320;2023-04-03T15:58:55;4.32;;;1.67;;
29452;SDS011;16424;50.956;5.320;2023-04-03T16:01:20;4.47;;;1.35;;
29452;SDS011;16424;50.956;5.320;2023-04-03T16:03:46;5.07;;;1.65;;
29452;SDS011;16424;50.956;5.320;2023-04-03T16:06:15;4.18;;;1.85;;
29452;SDS011;16424;50.956;5.320;2023-04-03T16:08:43;4.13;;;1.50;;
29452;SDS011;16424;50.956;5.320;2023-04-03T16:11:09;5.53;;;1.88;;
29452;SDS011;16424;50.956;5.320;2023-04-03T16:13:35;3.95;;;1.45;;
29452;SDS011;16424;50.956;5.320;2023-04-03T16:16:01;3.55;;;1.50;;
29452;SDS011;16424;50.956;5.320;2023-04-03T16:18:28;2.90;;;1.23;;
29452;SDS011;16424;50.956;5.320;2023-04-03T16:20:54;5.45;;;1.80;;
29452;SDS011;16424;50.956;5.320;2023-04-03T16:23:20;6.07;;;1.60;;
29452;SDS011;16424;50.956;5.320;2023-04-03T16:25:46;2.40;;;1.35;;
29452;SDS011;16424;50.956;5.320;2023-04-03T16:28:13;4.47;;;1.38;;
29452;SDS011;16424;50.956;5.320;2023-04-03T16:30:40;4.63;;;1.70;;
29452;SDS011;16424;50.956;5.320;2023-04-03T16:33:06;2.33;;;1.60;;
29452;SDS011;16424;50.956;5.320;2023-04-03T16:35:33;2.15;;;1.20;;
29452;SDS011;16424;50.956;5.320;2023-04-03T16:37:59;3.42;;;1.33;;
29452;SDS011;16424;50.956;5.320;2023-04-03T16:40:25;3.67;;;1.48;;